Time,TemperatureF,DewpointF,PressureIn,WindDirection,WindDirectionDegrees,WindSpeedMPH,WindSpeedGustMPH,Humidity,HourlyPrecipIn,Conditions,Clouds,dailyrainin,SoftwareType,DateUTC
2013-02-26 00:00:00,16.9,11.8,30.02,East,90,0.0,0.0,80,0.00,,,0.00,WUHU216HW,2013-02-26 06:00:00,
2013-02-26 00:05:00,16.9,11.8,30.02,East,90,0.0,0.0,80,0.00,,,0.00,WUHU216HW,2013-02-26 06:05:00,
2013-02-26 00:30:00,16.9,11.8,30.03,NE,45,0.4,0.4,80,0.00,,,0.00,WUHU216HW,2013-02-26 06:30:00,
2013-02-26 00:31:00,16.9,11.8,30.03,NE,45,0.4,0.4,80,0.00,,,0.00,WUHU216HW,2013-02-26 06:31:00,
2013-02-26 00:35:00,16.9,11.8,30.03,NE,45,0.4,0.4,80,0.00,,,0.00,WUHU216HW,2013-02-26 06:35:00,
2013-02-26 00:36:00,16.9,11.8,30.03,NE,45,0.4,0.4,80,0.00,,,0.00,WUHU216HW,2013-02-26 06:36:00,
2013-02-26 00:40:00,16.9,11.8,30.03,NE,45,0.4,0.4,80,0.00,,,0.00,WUHU216HW,2013-02-26 06:40:00,
2013-02-26 01:00:00,15.1,10.4,30.04,East,90,0.0,0.0,81,0.00,,,0.00,WUHU216HW,2013-02-26 07:00:00,
2013-02-26 01:05:00,15.1,10.4,30.04,East,90,0.0,0.0,81,0.00,,,0.00,WUHU216HW,2013-02-26 07:05:00,
2013-02-26 01:10:00,15.1,10.4,30.04,East,90,0.0,0.0,81,0.00,,,0.00,WUHU216HW,2013-02-26 07:10:00,
2013-02-26 01:30:00,15.1,10.4,30.03,North,0,3.4,3.4,81,0.00,,,0.00,WUHU216HW,2013-02-26 07:30:00,
2013-02-26 01:31:00,15.1,10.4,30.03,North,0,2.9,3.4,81,0.00,,,0.00,WUHU216HW,2013-02-26 07:31:00,
2013-02-26 01:35:00,15.1,10.4,30.03,North,0,2.7,3.4,81,0.00,,,0.00,WUHU216HW,2013-02-26 07:35:00,
2013-02-26 01:36:00,15.1,10.4,30.03,North,0,2.7,3.4,81,0.00,,,0.00,WUHU216HW,2013-02-26 07:36:00,
2013-02-26 01:40:00,15.1,10.4,30.03,North,0,2.7,2.7,81,0.00,,,0.00,WUHU216HW,2013-02-26 07:40:00,
2013-02-26 02:00:00,16.0,11.3,30.03,North,0,0.7,0.7,81,0.00,,,0.00,WUHU216HW,2013-02-26 08:00:00,
2013-02-26 02:05:00,16.0,11.3,30.03,North,0,0.7,0.7,81,0.00,,,0.00,WUHU216HW,2013-02-26 08:05:00,
2013-02-26 02:10:00,16.0,11.3,30.03,North,0,0.7,0.7,81,0.00,,,0.00,WUHU216HW,2013-02-26 08:10:00,
2013-02-26 02:30:00,15.5,10.7,30.01,North,0,0.7,0.7,81,0.00,,,0.00,WUHU216HW,2013-02-26 08:30:00,
2013-02-26 02:35:00,15.5,10.7,30.01,North,0,0.7,0.7,81,0.00,,,0.00,WUHU216HW,2013-02-26 08:35:00,
2013-02-26 02:40:00,15.5,10.7,30.01,North,0,0.7,0.7,81,0.00,,,0.00,WUHU216HW,2013-02-26 08:40:00,
2013-02-26 03:00:00,15.1,10.4,30.00,North,0,1.6,1.6,81,0.00,,,0.00,WUHU216HW,2013-02-26 09:00:00,
2013-02-26 03:05:00,15.1,10.4,30.00,North,0,1.1,1.6,81,0.00,,,0.00,WUHU216HW,2013-02-26 09:05:00,
2013-02-26 03:06:00,15.1,10.4,30.00,North,0,1.1,1.6,81,0.00,,,0.00,WUHU216HW,2013-02-26 09:06:00,
2013-02-26 03:10:00,15.1,10.4,30.00,North,0,1.1,1.1,81,0.00,,,0.00,WUHU216HW,2013-02-26 09:10:00,
2013-02-26 03:30:00,15.5,10.7,30.00,NE,45,0.0,0.0,81,0.00,,,0.00,WUHU216HW,2013-02-26 09:30:00,
2013-02-26 03:31:00,15.3,10.5,30.00,NE,45,0.0,0.0,81,0.00,,,0.00,WUHU216HW,2013-02-26 09:31:00,
2013-02-26 03:35:00,15.3,10.5,30.00,NE,45,0.0,0.0,81,0.00,,,0.00,WUHU216HW,2013-02-26 09:35:00,
2013-02-26 03:36:00,15.3,10.5,30.00,NE,45,0.0,0.0,81,0.00,,,0.00,WUHU216HW,2013-02-26 09:36:00,
2013-02-26 04:00:00,15.3,10.5,30.00,North,0,1.3,1.3,81,0.00,,,0.00,WUHU216HW,2013-02-26 10:00:00,
2013-02-26 04:05:00,15.3,10.5,30.00,NNW,338,0.4,1.3,81,0.00,,,0.00,WUHU216HW,2013-02-26 10:05:00,
2013-02-26 04:30:00,15.7,10.9,30.00,NNW,338,0.0,0.0,81,0.00,,,0.00,WUHU216HW,2013-02-26 10:30:00,
2013-02-26 04:31:00,15.7,10.9,30.00,NNW,338,0.0,0.0,81,0.00,,,0.00,WUHU216HW,2013-02-26 10:31:00,
2013-02-26 04:35:00,15.7,10.9,30.00,NNW,338,0.0,0.0,81,0.00,,,0.00,WUHU216HW,2013-02-26 10:35:00,
2013-02-26 04:36:00,15.7,10.9,30.00,NNW,338,0.0,0.0,81,0.00,,,0.00,WUHU216HW,2013-02-26 10:36:00,
2013-02-26 04:40:00,15.7,10.9,30.00,NNW,338,0.0,0.0,81,0.00,,,0.00,WUHU216HW,2013-02-26 10:40:00,
2013-02-26 05:00:00,15.1,10.4,30.00,NNW,338,1.1,1.1,81,0.00,,,0.00,WUHU216HW,2013-02-26 11:00:00,
2013-02-26 05:05:00,15.1,10.4,30.00,North,0,0.4,1.6,81,0.00,,,0.00,WUHU216HW,2013-02-26 11:05:00,
2013-02-26 05:30:00,15.5,10.7,29.99,NNE,23,1.8,1.8,81,0.00,,,0.00,WUHU216HW,2013-02-26 11:30:00,
2013-02-26 05:35:00,15.5,10.7,29.99,NNE,23,1.8,1.8,81,0.00,,,0.00,WUHU216HW,2013-02-26 11:35:00,
2013-02-26 05:36:00,15.5,10.7,29.99,NNE,23,1.8,1.8,81,0.00,,,0.00,WUHU216HW,2013-02-26 11:36:00,
2013-02-26 05:40:00,15.5,10.7,29.99,NNE,23,1.8,1.8,81,0.00,,,0.00,WUHU216HW,2013-02-26 11:40:00,
2013-02-26 06:00:00,14.2,9.5,29.99,North,0,0.4,0.4,81,0.00,,,0.00,WUHU216HW,2013-02-26 12:00:00,
2013-02-26 06:05:00,14.2,9.5,29.99,NNE,23,0.9,0.9,81,0.00,,,0.00,WUHU216HW,2013-02-26 12:05:00,
2013-02-26 06:10:00,14.2,9.5,29.99,NNE,23,0.9,0.9,81,0.00,,,0.00,WUHU216HW,2013-02-26 12:10:00,
2013-02-26 06:30:00,13.0,8.5,29.99,North,0,2.7,2.7,82,0.00,,,0.00,WUHU216HW,2013-02-26 12:30:00,
2013-02-26 06:35:00,13.0,8.2,29.99,North,0,2.9,2.9,81,0.00,,,0.00,WUHU216HW,2013-02-26 12:35:00,
2013-02-26 06:36:00,13.0,8.2,29.99,North,0,2.9,2.9,81,0.00,,,0.00,WUHU216HW,2013-02-26 12:36:00,
2013-02-26 06:40:00,13.0,8.2,29.99,North,0,2.9,2.9,81,0.00,,,0.00,WUHU216HW,2013-02-26 12:40:00,
2013-02-26 07:00:00,13.1,8.6,30.00,North,0,3.6,3.6,82,0.00,,,0.00,WUHU216HW,2013-02-26 13:00:00,
2013-02-26 07:05:00,13.1,8.6,30.00,North,0,4.5,4.5,82,0.00,,,0.00,WUHU216HW,2013-02-26 13:05:00,
2013-02-26 07:10:00,13.1,8.6,30.00,North,0,4.5,4.5,82,0.00,,,0.00,WUHU216HW,2013-02-26 13:10:00,
2013-02-26 07:30:00,13.9,9.1,29.99,North,0,2.2,2.2,81,0.00,,,0.00,WUHU216HW,2013-02-26 13:30:00,
2013-02-26 07:35:00,13.9,9.1,29.99,North,0,4.3,4.3,81,0.00,,,0.00,WUHU216HW,2013-02-26 13:35:00,
2013-02-26 07:40:00,13.9,9.1,29.99,North,0,4.3,4.3,81,0.00,,,0.00,WUHU216HW,2013-02-26 13:40:00,
2013-02-26 08:00:00,15.3,10.5,29.98,North,0,1.1,1.1,81,0.00,,,0.00,WUHU216HW,2013-02-26 14:00:00,
2013-02-26 08:05:00,15.3,10.5,29.98,NNE,23,1.1,1.1,81,0.00,,,0.00,WUHU216HW,2013-02-26 14:05:00,
2013-02-26 08:10:00,15.3,10.5,29.98,NNE,23,1.1,1.1,81,0.00,,,0.00,WUHU216HW,2013-02-26 14:10:00,
2013-02-26 08:30:00,17.5,12.5,29.99,North,0,0.9,0.9,81,0.00,,,0.00,WUHU216HW,2013-02-26 14:30:00,
2013-02-26 08:31:00,17.5,12.5,29.99,North,0,0.9,0.9,81,0.00,,,0.00,WUHU216HW,2013-02-26 14:31:00,
2013-02-26 08:35:00,17.5,12.5,29.99,North,0,0.9,0.9,81,0.00,,,0.00,WUHU216HW,2013-02-26 14:35:00,
2013-02-26 08:36:00,17.5,12.5,29.99,North,0,0.9,0.9,81,0.00,,,0.00,WUHU216HW,2013-02-26 14:36:00,
2013-02-26 08:40:00,17.5,12.5,29.99,North,0,0.9,0.9,81,0.00,,,0.00,WUHU216HW,2013-02-26 14:40:00,
2013-02-26 09:00:00,19.6,14.7,29.99,NE,45,1.1,1.1,81,0.00,,,0.00,WUHU216HW,2013-02-26 15:00:00,
2013-02-26 09:05:00,19.6,14.7,29.99,NNE,23,0.9,1.1,81,0.00,,,0.00,WUHU216HW,2013-02-26 15:05:00,
2013-02-26 09:30:00,21.6,16.7,29.98,North,0,4.0,4.0,81,0.00,,,0.00,WUHU216HW,2013-02-26 15:30:00,
2013-02-26 09:35:00,21.6,16.7,29.99,NNE,23,4.0,4.0,81,0.00,,,0.00,WUHU216HW,2013-02-26 15:35:00,
2013-02-26 09:36:00,21.6,16.7,29.99,NNE,23,4.0,4.0,81,0.00,,,0.00,WUHU216HW,2013-02-26 15:36:00,
2013-02-26 09:40:00,21.6,16.7,29.99,NNE,23,4.0,4.0,81,0.00,,,0.00,WUHU216HW,2013-02-26 15:40:00,
2013-02-26 10:00:00,23.8,18.5,29.99,NNE,23,2.5,2.5,80,0.00,,,0.00,WUHU216HW,2013-02-26 16:00:00,
2013-02-26 10:05:00,23.9,18.7,29.99,NNE,23,2.2,2.5,80,0.00,,,0.00,WUHU216HW,2013-02-26 16:05:00,
2013-02-26 10:10:00,23.9,18.7,29.99,NNE,23,2.2,2.2,80,0.00,,,0.00,WUHU216HW,2013-02-26 16:10:00,
2013-02-26 10:30:00,24.8,19.6,29.98,North,0,3.4,3.4,80,0.00,,,0.00,WUHU216HW,2013-02-26 16:30:00,
2013-02-26 10:31:00,25.0,19.8,29.98,North,0,3.2,3.4,80,0.00,,,0.00,WUHU216HW,2013-02-26 16:31:00,
2013-02-26 10:35:00,25.0,19.8,29.98,North,0,2.9,3.4,80,0.00,,,0.00,WUHU216HW,2013-02-26 16:35:00,
2013-02-26 10:36:00,25.0,19.8,29.98,North,0,2.9,3.4,80,0.00,,,0.00,WUHU216HW,2013-02-26 16:36:00,
2013-02-26 10:40:00,25.0,19.8,29.98,North,0,2.9,2.9,80,0.00,,,0.00,WUHU216HW,2013-02-26 16:40:00,
2013-02-26 11:00:00,26.6,21.5,29.98,NNE,23,4.0,4.0,81,0.00,,,0.00,WUHU216HW,2013-02-26 17:00:00,
2013-02-26 11:05:00,26.8,21.7,29.98,NNE,23,4.0,4.0,81,0.00,,,0.00,WUHU216HW,2013-02-26 17:05:00,
2013-02-26 11:30:00,27.9,22.5,29.98,North,0,4.3,4.3,80,0.00,,,0.00,WUHU216HW,2013-02-26 17:30:00,
2013-02-26 11:35:00,27.7,22.3,29.98,NNW,338,3.6,4.3,80,0.00,,,0.00,WUHU216HW,2013-02-26 17:35:00,
2013-02-26 11:40:00,27.7,22.3,29.98,NNW,338,3.6,3.6,80,0.00,,,0.00,WUHU216HW,2013-02-26 17:40:00,
2013-02-26 12:00:00,28.4,23.0,29.96,North,0,9.2,9.2,80,0.00,,,0.00,WUHU216HW,2013-02-26 18:00:00,
2013-02-26 12:05:00,28.3,22.9,29.96,NNW,338,10.7,10.7,80,0.00,,,0.00,WUHU216HW,2013-02-26 18:05:00,
2013-02-26 12:10:00,28.3,22.9,29.96,NNW,338,10.7,10.7,80,0.00,,,0.00,WUHU216HW,2013-02-26 18:10:00,
2013-02-26 12:30:00,30.2,24.8,29.94,North,0,8.3,8.3,80,0.00,,,0.00,WUHU216HW,2013-02-26 18:30:00,
2013-02-26 12:35:00,30.4,25.0,29.94,NNW,338,7.8,11.6,80,0.00,,,0.00,WUHU216HW,2013-02-26 18:35:00,
2013-02-26 12:36:00,30.4,25.0,29.94,NNW,338,7.8,11.6,80,0.00,,,0.00,WUHU216HW,2013-02-26 18:36:00,
2013-02-26 12:40:00,30.4,25.0,29.94,NNW,338,7.8,7.8,80,0.00,,,0.00,WUHU216HW,2013-02-26 18:40:00,
2013-02-26 13:00:00,32.8,26.3,29.93,North,0,10.3,10.3,77,0.00,,,0.00,WUHU216HW,2013-02-26 19:00:00,
2013-02-26 13:05:00,32.8,26.3,29.93,NNE,23,9.2,10.3,77,0.00,,,0.00,WUHU216HW,2013-02-26 19:05:00,
2013-02-26 13:10:00,32.8,26.3,29.93,NNE,23,9.2,10.3,77,0.00,,,0.00,WUHU216HW,2013-02-26 19:10:00,
2013-02-26 13:30:00,34.6,26.7,29.92,NNE,23,7.6,7.6,73,0.00,,,0.00,WUHU216HW,2013-02-26 19:30:00,
2013-02-26 13:35:00,34.6,26.7,29.92,North,0,9.2,11.4,73,0.00,,,0.00,WUHU216HW,2013-02-26 19:35:00,
2013-02-26 13:40:00,34.6,26.7,29.92,North,0,9.2,11.4,73,0.00,,,0.00,WUHU216HW,2013-02-26 19:40:00,
2013-02-26 14:00:00,35.3,27.5,29.92,NNE,23,6.9,6.9,73,0.00,,,0.00,WUHU216HW,2013-02-26 20:00:00,
2013-02-26 14:05:00,35.3,27.5,29.92,NNE,23,6.9,6.9,73,0.00,,,0.00,WUHU216HW,2013-02-26 20:05:00,
2013-02-26 14:10:00,35.3,27.5,29.92,NNE,23,6.9,6.9,73,0.00,,,0.00,WUHU216HW,2013-02-26 20:10:00,
2013-02-26 14:30:00,35.1,26.9,29.91,NNE,23,8.3,8.3,72,0.00,,,0.00,WUHU216HW,2013-02-26 20:30:00,
2013-02-26 14:35:00,35.1,26.9,29.91,NNE,23,9.2,9.2,72,0.00,,,0.00,WUHU216HW,2013-02-26 20:35:00,
2013-02-26 15:00:00,36.9,27.7,29.90,NNW,338,10.1,10.1,69,0.00,,,0.00,WUHU216HW,2013-02-26 21:00:00,
2013-02-26 15:05:00,37.1,27.9,29.90,North,0,9.4,10.1,69,0.00,,,0.00,WUHU216HW,2013-02-26 21:05:00,
2013-02-26 15:10:00,37.1,27.9,29.90,North,0,9.4,9.4,69,0.00,,,0.00,WUHU216HW,2013-02-26 21:10:00,
2013-02-26 15:30:00,38.2,28.2,29.89,North,0,12.1,12.1,67,0.00,,,0.00,WUHU216HW,2013-02-26 21:30:00,
2013-02-26 15:35:00,38.2,27.7,29.89,NNE,23,13.0,13.0,66,0.00,,,0.00,WUHU216HW,2013-02-26 21:35:00,
2013-02-26 15:36:00,38.2,27.7,29.89,NNE,23,13.0,13.0,66,0.00,,,0.00,WUHU216HW,2013-02-26 21:36:00,
2013-02-26 15:40:00,38.2,27.7,29.89,NNE,23,13.0,13.0,66,0.00,,,0.00,WUHU216HW,2013-02-26 21:40:00,
2013-02-26 16:00:00,38.7,27.5,29.88,North,0,13.2,13.2,64,0.00,,,0.00,WUHU216HW,2013-02-26 22:00:00,
2013-02-26 16:05:00,38.5,27.4,29.88,North,0,13.2,13.2,64,0.00,,,0.00,WUHU216HW,2013-02-26 22:05:00,
2013-02-26 16:06:00,38.5,27.4,29.88,North,0,13.2,13.2,64,0.00,,,0.00,WUHU216HW,2013-02-26 22:06:00,
2013-02-26 16:10:00,38.5,27.4,29.88,North,0,13.2,13.2,64,0.00,,,0.00,WUHU216HW,2013-02-26 22:10:00,
2013-02-26 16:30:00,38.5,27.4,29.88,North,0,6.3,6.3,64,0.00,,,0.00,WUHU216HW,2013-02-26 22:30:00,
2013-02-26 16:35:00,38.5,27.4,29.88,North,0,6.3,6.3,64,0.00,,,0.00,WUHU216HW,2013-02-26 22:35:00,
2013-02-26 16:40:00,38.5,27.4,29.88,North,0,6.3,6.3,64,0.00,,,0.00,WUHU216HW,2013-02-26 22:40:00,
2013-02-26 17:00:00,37.4,27.1,29.87,North,0,4.3,4.3,66,0.00,,,0.00,WUHU216HW,2013-02-26 23:00:00,
2013-02-26 17:05:00,37.3,26.9,29.87,North,0,7.2,7.2,66,0.00,,,0.00,WUHU216HW,2013-02-26 23:05:00,
2013-02-26 17:10:00,37.3,26.9,29.87,North,0,7.2,7.2,66,0.00,,,0.00,WUHU216HW,2013-02-26 23:10:00,
2013-02-26 17:30:00,36.5,27.0,29.88,North,0,15.0,15.0,68,0.00,,,0.00,WUHU216HW,2013-02-26 23:30:00,
2013-02-26 17:35:00,36.5,27.0,29.88,North,0,10.3,15.0,68,0.00,,,0.00,WUHU216HW,2013-02-26 23:35:00,
2013-02-26 17:36:00,36.5,27.0,29.88,North,0,10.3,15.0,68,0.00,,,0.00,WUHU216HW,2013-02-26 23:36:00,
2013-02-26 17:40:00,36.5,27.0,29.88,North,0,10.3,10.3,68,0.00,,,0.00,WUHU216HW,2013-02-26 23:40:00,
2013-02-26 18:00:00,35.5,27.0,29.89,North,0,8.9,8.9,71,0.00,,,0.00,WUHU216HW,2013-02-27 00:00:00,
2013-02-26 18:05:00,35.5,27.0,29.89,North,0,13.2,13.2,71,0.00,,,0.00,WUHU216HW,2013-02-27 00:05:00,
2013-02-26 18:10:00,35.5,27.0,29.89,North,0,13.2,13.2,71,0.00,,,0.00,WUHU216HW,2013-02-27 00:10:00,
2013-02-26 18:30:00,34.2,26.4,29.89,NNE,23,11.0,11.0,73,0.00,,,0.00,WUHU216HW,2013-02-27 00:30:00,
2013-02-26 18:35:00,34.2,26.4,29.89,North,0,8.9,11.0,73,0.00,,,0.00,WUHU216HW,2013-02-27 00:35:00,
2013-02-26 19:00:00,33.7,26.2,29.90,North,0,7.6,7.6,74,0.00,,,0.00,WUHU216HW,2013-02-27 01:00:00,
2013-02-26 19:05:00,33.7,26.2,29.90,NE,45,6.5,7.6,74,0.00,,,0.00,WUHU216HW,2013-02-27 01:05:00,
2013-02-26 19:10:00,33.7,26.2,29.90,NE,45,6.5,6.5,74,0.00,,,0.00,WUHU216HW,2013-02-27 01:10:00,
2013-02-26 19:30:00,33.3,25.5,29.90,NNE,23,12.8,12.8,73,0.00,,,0.00,WUHU216HW,2013-02-27 01:30:00,
2013-02-26 19:31:00,33.3,25.5,29.90,NNE,23,12.8,12.8,73,0.00,,,0.00,WUHU216HW,2013-02-27 01:31:00,
2013-02-26 19:35:00,33.3,25.5,29.90,NNE,23,12.8,12.8,73,0.00,,,0.00,WUHU216HW,2013-02-27 01:35:00,
2013-02-26 19:36:00,33.3,25.5,29.90,NNE,23,12.8,12.8,73,0.00,,,0.00,WUHU216HW,2013-02-27 01:36:00,
2013-02-26 20:00:00,32.4,25.0,29.90,NNE,23,13.9,13.9,74,0.00,,,0.00,WUHU216HW,2013-02-27 02:00:00,
2013-02-26 20:05:00,32.6,25.2,29.90,North,0,9.8,13.9,74,0.00,,,0.00,WUHU216HW,2013-02-27 02:05:00,
2013-02-26 20:10:00,32.6,25.2,29.90,North,0,9.8,9.8,74,0.00,,,0.00,WUHU216HW,2013-02-27 02:10:00,
2013-02-26 20:30:00,31.9,24.5,29.90,NNE,23,6.7,6.7,74,0.00,,,0.00,WUHU216HW,2013-02-27 02:30:00,
2013-02-26 20:31:00,31.9,24.8,29.90,North,0,6.9,6.9,75,0.00,,,0.00,WUHU216HW,2013-02-27 02:31:00,
2013-02-26 20:35:00,31.9,24.8,29.90,North,0,6.9,6.9,75,0.00,,,0.00,WUHU216HW,2013-02-27 02:35:00,
2013-02-26 20:36:00,31.9,24.8,29.90,North,0,6.9,6.9,75,0.00,,,0.00,WUHU216HW,2013-02-27 02:36:00,
2013-02-26 21:00:00,31.3,24.3,29.90,North,0,11.4,11.4,75,0.00,,,0.00,WUHU216HW,2013-02-27 03:00:00,
2013-02-26 21:05:00,31.3,24.3,29.90,NNE,23,10.5,11.4,75,0.00,,,0.00,WUHU216HW,2013-02-27 03:05:00,
2013-02-26 21:10:00,31.3,24.3,29.90,NNE,23,10.5,10.5,75,0.00,,,0.00,WUHU216HW,2013-02-27 03:10:00,
2013-02-26 21:30:00,30.8,24.1,29.90,North,0,7.6,7.6,76,0.00,,,0.00,WUHU216HW,2013-02-27 03:30:00,
2013-02-26 21:31:00,30.8,24.1,29.90,North,353,8.7,10.5,76,0.00,,,0.00,WUHU216HW,2013-02-27 03:31:00,
2013-02-26 21:35:00,30.8,24.1,29.90,NNW,338,8.1,10.5,76,0.00,,,0.00,WUHU216HW,2013-02-27 03:35:00,
2013-02-26 21:36:00,30.8,24.1,29.90,NNW,338,8.1,10.5,76,0.00,,,0.00,WUHU216HW,2013-02-27 03:36:00,
2013-02-26 22:00:00,31.0,23.9,29.90,North,0,9.4,9.4,75,0.00,,,0.00,WUHU216HW,2013-02-27 04:00:00,
2013-02-26 22:05:00,31.0,23.9,29.90,North,0,8.5,9.4,75,0.00,,,0.00,WUHU216HW,2013-02-27 04:05:00,
2013-02-26 22:10:00,31.0,23.9,29.90,North,0,8.5,9.2,75,0.00,,,0.00,WUHU216HW,2013-02-27 04:10:00,
2013-02-26 22:30:00,30.6,23.2,29.90,North,0,7.4,7.4,74,0.00,,,0.00,WUHU216HW,2013-02-27 04:30:00,
2013-02-26 22:35:00,30.6,23.2,29.90,NNE,23,7.8,7.8,74,0.00,,,0.00,WUHU216HW,2013-02-27 04:35:00,
2013-02-26 22:36:00,30.6,23.2,29.90,NNE,23,7.8,7.8,74,0.00,,,0.00,WUHU216HW,2013-02-27 04:36:00,
2013-02-26 22:40:00,30.6,23.2,29.90,NNE,23,7.8,7.8,74,0.00,,,0.00,WUHU216HW,2013-02-27 04:40:00,
2013-02-26 23:00:00,29.9,23.2,29.88,NNW,338,11.9,11.9,76,0.00,,,0.00,WUHU216HW,2013-02-27 05:00:00,
2013-02-26 23:05:00,29.9,23.2,29.88,NNW,338,6.9,11.9,76,0.00,,,0.00,WUHU216HW,2013-02-27 05:05:00,
2013-02-26 23:10:00,29.9,23.2,29.88,NNW,338,6.9,11.9,76,0.00,,,0.00,WUHU216HW,2013-02-27 05:10:00,
2013-02-26 23:30:00,29.9,23.5,29.87,North,0,13.4,13.4,77,0.00,,,0.00,WUHU216HW,2013-02-27 05:30:00,
2013-02-26 23:35:00,29.9,23.5,29.87,North,0,10.1,14.5,77,0.00,,,0.00,WUHU216HW,2013-02-27 05:35:00,
2013-02-26 23:40:00,29.9,23.5,29.87,North,0,10.1,14.5,77,0.00,,,0.00,WUHU216HW,2013-02-27 05:40:00,